Time;durP1;ratioP1;P1;durP2;ratioP2;P2;SDS_P1;SDS_P2;PMS_P1;PMS_P2;Temp;Humidity;BMP_temperature;BMP_pressure;BME280_temperature;BME280_humidity;BME280_pressure;Samples;Min_cycle;Max_cycle;Signal;HPM_P1;HPM_P2
2021/12/23 00:01:45;;;;;;;54.40;27.73;;;;;;;-1.14;75.49;100715.56;5092489;28;20433;-69
2021/12/23 00:04:14;;;;;;;61.30;30.80;;;;;;;-1.14;76.76;100715.56;5092152;28;20444;-69
2021/12/23 00:06:43;;;;;;;60.47;31.63;;;;;;;-1.20;76.61;100716.75;5092393;28;20473;-69
2021/12/23 00:09:10;;;;;;;66.90;31.73;;;;;;;-1.20;76.69;100710.69;5093009;28;20498;-69
2021/12/23 00:11:37;;;;;;;64.17;31.83;;;;;;;-1.19;76.35;100714.97;5092136;28;20437;-69
2021/12/23 00:14:06;;;;;;;53.83;30.13;;;;;;;-1.23;76.07;100705.66;5092171;28;20503;-70
2021/12/23 00:16:43;;;;;;;54.97;29.27;;;;;;;-1.26;75.73;100716.28;5092085;28;21003;-70
2021/12/23 00:19:22;;;;;;;55.43;29.07;;;;;;;-1.26;75.88;100713.69;5093191;28;20443;-70
2021/12/23 00:24:33;;;;;;;49.80;27.50;;;;;;;-1.37;76.71;100721.28;5092493;28;20412;-70
2021/12/23 00:27:00;;;;;;;60.60;30.43;;;;;;;-1.43;76.41;100716.47;5092982;28;20469;-69
2021/12/23 00:29:27;;;;;;;61.10;30.10;;;;;;;-1.49;76.24;100709.00;5092758;28;20433;-69
2021/12/23 00:31:55;;;;;;;55.17;28.97;;;;;;;-1.52;77.20;100707.41;5092225;28;20502;-69
2021/12/23 00:34:22;;;;;;;66.37;30.87;;;;;;;-1.68;77.74;100700.56;5092446;28;20506;-70
2021/12/23 00:36:49;;;;;;;65.97;32.17;;;;;;;-1.71;77.75;100706.78;5092171;28;20436;-69
2021/12/23 00:39:17;;;;;;;60.03;29.90;;;;;;;-1.79;78.24;100713.41;5093009;28;20440;-69
2021/12/23 00:41:44;;;;;;;71.77;33.17;;;;;;;-1.73;77.63;100710.41;5091819;28;20433;-69
2021/12/23 00:44:11;;;;;;;62.87;32.47;;;;;;;-1.75;77.28;100713.09;5092345;28;20828;-69
2021/12/23 00:46:38;;;;;;;68.60;34.07;;;;;;;-1.76;77.97;100703.63;5091823;28;20485;-70
2021/12/23 00:49:06;;;;;;;75.80;35.03;;;;;;;-1.77;78.44;100701.09;5094268;28;20437;-69
2021/12/23 00:51:33;;;;;;;62.40;33.47;;;;;;;-1.78;78.44;100699.44;5095778;28;20516;-70
2021/12/23 00:54:04;;;;;;;60.83;34.33;;;;;;;-1.79;77.91;100692.56;5095596;28;20905;-69
2021/12/23 00:56:32;;;;;;;65.50;33.80;;;;;;;-1.87;78.04;100699.97;5095756;28;20439;-70
2021/12/23 00:58:58;;;;;;;69.13;35.33;;;;;;;-2.05;78.50;100703.63;5095402;28;20559;-70
2021/12/23 01:01:25;;;;;;;69.03;33.60;;;;;;;-2.19;78.65;100703.56;5095659;28;20444;-70
2021/12/23 01:03:52;;;;;;;77.03;37.40;;;;;;;-2.36;79.68;100701.09;5095879;28;20441;-70
2021/12/23 01:06:20;;;;;;;80.40;35.87;;;;;;;-2.44;80.52;100696.31;5096564;28;20542;-70
2021/12/23 01:08:47;;;;;;;74.40;35.90;;;;;;;-2.42;81.45;100696.19;5095984;28;20435;-70
2021/12/23 01:11:13;;;;;;;73.93;35.37;;;;;;;-2.33;80.65;100698.31;5095228;28;20940;-72
2021/12/23 01:13:47;;;;;;;75.20;35.13;;;;;;;-2.31;81.04;100694.69;5095452;28;20429;-71
2021/12/23 01:16:25;;;;;;;68.23;34.83;;;;;;;-2.31;79.92;100696.47;5095636;28;20437;-71
2021/12/23 01:18:55;;;;;;;75.40;37.07;;;;;;;-2.39;81.20;100696.03;5095287;28;20432;-71
2021/12/23 01:21:23;;;;;;;84.67;37.10;;;;;;;-2.42;81.32;100681.44;5095478;28;20437;-71
2021/12/23 01:23:52;;;;;;;74.73;36.83;;;;;;;-2.36;80.52;100680.28;5095193;28;20465;-71
2021/12/23 01:26:22;;;;;;;74.43;38.00;;;;;;;-2.28;80.25;100688.50;5095359;28;20472;-71
2021/12/23 01:28:51;;;;;;;73.37;37.07;;;;;;;-2.36;80.25;100680.28;5095041;28;20507;-71
2021/12/23 01:31:19;;;;;;;78.30;38.57;;;;;;;-2.30;81.16;100682.50;5095343;28;20441;-72
2021/12/23 01:33:46;;;;;;;79.13;39.43;;;;;;;-2.21;80.00;100692.44;5094994;28;20441;-71
2021/12/23 01:36:12;;;;;;;75.27;37.77;;;;;;;-2.18;79.70;100685.28;5094923;28;20467;-70
2021/12/23 01:38:40;;;;;;;76.80;38.33;;;;;;;-2.10;79.79;100687.44;5095150;28;20437;-71
2021/12/23 01:41:07;;;;;;;68.93;36.67;;;;;;;-2.05;79.38;100688.00;5094826;28;20441;-70
2021/12/23 01:43:34;;;;;;;79.73;38.43;;;;;;;-2.05;79.22;100688.00;5095656;28;20433;-70
2021/12/23 01:46:02;;;;;;;74.40;37.53;;;;;;;-2.02;78.91;100685.22;5094938;28;20441;-70
2021/12/23 01:48:29;;;;;;;75.23;38.20;;;;;;;-2.03;78.94;100674.00;5094991;28;20437;-70
2021/12/23 01:50:55;;;;;;;77.63;39.20;;;;;;;-2.01;78.02;100676.50;5094904;28;20449;-70
2021/12/23 01:53:22;;;;;;;71.57;37.03;;;;;;;-2.05;78.19;100685.41;5094618;28;20437;-70
2021/12/23 01:55:51;;;;;;;79.23;38.17;;;;;;;-2.12;78.26;100674.50;5094870;28;20433;-70
2021/12/23 01:58:18;;;;;;;72.47;37.97;;;;;;;-2.11;78.65;100677.97;5094498;28;20545;-70
2021/12/23 02:00:48;;;;;;;78.83;36.80;;;;;;;-2.09;79.12;100670.88;5093615;28;20437;-70
2021/12/23 02:03:15;;;;;;;79.17;35.10;;;;;;;-2.06;79.11;100668.13;5094905;28;20441;-71
2021/12/23 02:05:42;;;;;;;72.30;35.00;;;;;;;-2.03;78.85;100667.94;5094331;28;20797;-71
2021/12/23 02:08:09;;;;;;;64.17;34.67;;;;;;;-2.04;78.34;100668.88;5094243;28;21002;-71
2021/12/23 02:10:36;;;;;;;68.57;34.07;;;;;;;-2.11;78.46;100659.75;5095124;28;20441;-70
2021/12/23 02:13:04;;;;;;;64.63;34.63;;;;;;;-2.07;79.12;100666.44;5094254;28;20936;-70
2021/12/23 02:15:31;;;;;;;64.40;35.27;;;;;;;-2.04;78.85;100666.28;5094147;28;20865;-70
2021/12/23 02:17:58;;;;;;;76.17;34.83;;;;;;;-2.01;78.34;100666.06;5094745;28;20498;-70
2021/12/23 02:20:31;;;;;;;61.83;33.70;;;;;;;-2.04;78.06;100659.28;5094369;28;20433;-69
2021/12/23 02:22:58;;;;;;;60.47;32.97;;;;;;;-2.11;77.95;100670.16;5094695;28;20868;-70
2021/12/23 02:25:25;;;;;;;79.43;38.03;;;;;;;-2.23;78.45;100671.69;5094588;28;20433;-70
2021/12/23 02:27:53;;;;;;;76.87;40.10;;;;;;;-2.19;79.02;100670.59;5094169;28;20477;-70
2021/12/23 02:30:29;;;;;;;64.00;35.10;;;;;;;-2.19;78.90;100672.34;5093876;28;20924;-70
2021/12/23 02:32:56;;;;;;;69.60;32.37;;;;;;;-2.12;78.00;100668.47;5094244;28;20437;-69
2021/12/23 02:35:25;;;;;;;65.27;32.30;;;;;;;-2.08;78.01;100672.59;5094132;28;20441;-69
2021/12/23 02:37:53;;;;;;;64.33;33.30;;;;;;;-2.05;77.82;100669.78;5094085;28;20890;-69
2021/12/23 02:40:27;;;;;;;61.87;32.13;;;;;;;-2.07;77.21;100674.25;5093972;28;20490;-70
2021/12/23 02:42:55;;;;;;;64.33;32.93;;;;;;;-2.07;76.92;100669.03;5094335;28;20414;-71
2021/12/23 02:45:22;;;;;;;60.93;30.87;;;;;;;-2.07;77.36;100676.84;5093901;28;20433;-71
2021/12/23 02:47:50;;;;;;;53.93;30.53;;;;;;;-2.07;76.57;100671.66;5093484;28;21027;-71
2021/12/23 02:50:17;;;;;;;55.37;30.60;;;;;;;-2.08;76.77;100676.00;5094060;28;20434;-71
2021/12/23 02:52:43;;;;;;;59.10;30.00;;;;;;;-2.11;76.56;100664.94;5093459;28;20944;-71
2021/12/23 02:55:12;;;;;;;57.90;30.87;;;;;;;-2.19;76.57;100668.00;5093685;28;20437;-71
2021/12/23 02:57:38;;;;;;;59.60;31.10;;;;;;;-2.24;77.61;100670.00;5093251;28;20490;-71
2021/12/23 03:00:07;;;;;;;65.30;31.73;;;;;;;-2.26;76.92;100660.59;5093595;28;20429;-71
2021/12/23 03:02:33;;;;;;;59.37;32.73;;;;;;;-2.49;77.91;100661.09;5093173;28;20441;-71
2021/12/23 03:05:00;;;;;;;62.67;33.63;;;;;;;-2.41;78.15;100664.91;5093044;28;20868;-71
2021/12/23 03:07:27;;;;;;;62.53;32.80;;;;;;;-2.36;77.85;100667.25;5093093;28;20473;-71
2021/12/23 03:09:54;;;;;;;57.37;31.70;;;;;;;-2.29;77.71;100677.22;5092941;28;21006;-71
2021/12/23 03:12:22;;;;;;;63.13;31.00;;;;;;;-2.28;77.57;100680.69;5094010;28;20437;-69
2021/12/23 03:14:48;;;;;;;59.17;30.33;;;;;;;-2.27;76.93;100672.78;5093005;28;21013;-70
2021/12/23 03:17:15;;;;;;;62.70;34.30;;;;;;;-2.30;77.98;100674.72;5093018;28;20445;-70
2021/12/23 03:19:42;;;;;;;57.70;33.57;;;;;;;-2.27;78.37;100675.41;5093545;28;20441;-70
2021/12/23 03:22:08;;;;;;;68.97;34.63;;;;;;;-2.37;77.37;100678.59;5094002;28;20441;-70
2021/12/23 03:24:35;;;;;;;62.37;33.07;;;;;;;-2.52;77.96;100674.25;5092830;28;20494;-70
2021/12/23 03:27:02;;;;;;;60.90;33.50;;;;;;;-2.62;78.07;100679.09;5093081;28;20476;-69
2021/12/23 03:29:30;;;;;;;63.40;34.00;;;;;;;-2.63;78.55;100677.44;5093307;28;20440;-70
2021/12/23 03:31:57;;;;;;;71.07;37.57;;;;;;;-2.66;78.61;100684.59;5092712;28;21001;-70
2021/12/23 03:34:23;;;;;;;67.70;35.80;;;;;;;-2.78;78.61;100680.06;5093565;28;20505;-69
2021/12/23 03:36:50;;;;;;;71.47;36.37;;;;;;;-2.87;78.52;100686.56;5092635;28;20445;-70
2021/12/23 03:39:17;;;;;;;71.20;35.43;;;;;;;-2.97;79.08;100679.34;5092561;28;20445;-70
2021/12/23 03:41:43;;;;;;;66.90;34.67;;;;;;;-3.02;79.33;100681.38;5092844;28;20429;-70
2021/12/23 03:44:10;;;;;;;78.43;35.33;;;;;;;-3.04;81.16;100678.00;5092846;28;20437;-69
2021/12/23 03:46:38;;;;;;;65.13;35.23;;;;;;;-2.93;80.64;100684.31;5092724;28;20433;-70
2021/12/23 03:49:06;;;;;;;71.60;33.30;;;;;;;-2.89;79.81;100684.97;5092845;28;20433;-69
2021/12/23 03:51:33;;;;;;;77.87;34.57;;;;;;;-2.91;79.90;100686.81;5093514;28;20506;-70
2021/12/23 03:54:00;;;;;;;70.63;33.40;;;;;;;-2.90;79.09;100693.72;5092687;28;20437;-69
2021/12/23 03:56:27;;;;;;;65.93;32.80;;;;;;;-2.88;80.50;100690.09;5092932;28;20437;-70
2021/12/23 03:58:55;;;;;;;59.50;32.63;;;;;;;-2.90;79.90;100698.91;5092407;28;20481;-69
2021/12/23 04:01:23;;;;;;;64.40;32.97;;;;;;;-2.82;79.92;100701.94;5092754;28;20448;-69
2021/12/23 04:03:53;;;;;;;67.70;32.67;;;;;;;-2.78;79.25;100698.25;5093334;28;20437;-69
2021/12/23 04:06:21;;;;;;;65.17;33.37;;;;;;;-2.72;78.97;100708.31;5092467;28;20433;-69
2021/12/23 04:08:48;;;;;;;75.60;34.90;;;;;;;-2.68;78.73;100704.63;5092190;28;20547;-69
2021/12/23 04:11:15;;;;;;;64.87;33.97;;;;;;;-2.67;78.28;100708.88;5092122;28;20503;-69
2021/12/23 04:13:42;;;;;;;64.23;31.73;;;;;;;-2.68;77.78;100710.66;5092115;28;20467;-69
2021/12/23 04:16:09;;;;;;;61.67;31.63;;;;;;;-2.80;77.63;100710.47;5092908;28;20557;-69
2021/12/23 04:18:36;;;;;;;73.57;35.47;;;;;;;-2.89;78.72;100713.56;5092613;28;20530;-70
2021/12/23 04:21:04;;;;;;;68.30;38.13;;;;;;;-3.17;79.97;100710.75;5091964;28;20497;-70
2021/12/23 04:23:32;;;;;;;80.10;42.73;;;;;;;-3.26;80.63;100713.84;5092274;28;20494;-70
2021/12/23 04:26:00;;;;;;;96.50;51.53;;;;;;;-3.07;80.13;100709.38;5091950;28;20502;-70
2021/12/23 04:28:27;;;;;;;89.00;46.30;;;;;;;-3.11;80.17;100713.03;5092224;28;20476;-70
2021/12/23 04:30:54;;;;;;;69.93;40.73;;;;;;;-3.13;79.83;100713.13;5091861;28;20824;-69
2021/12/23 04:33:21;;;;;;;70.90;40.17;;;;;;;-3.03;79.74;100713.47;5092190;28;20432;-70
2021/12/23 04:35:48;;;;;;;77.23;37.77;;;;;;;-2.94;79.92;100715.59;5091849;28;20437;-70
2021/12/23 04:38:16;;;;;;;66.80;37.73;;;;;;;-2.94;80.07;100703.41;5092086;28;20569;-70
2021/12/23 04:40:43;;;;;;;72.00;38.70;;;;;;;-2.91;79.71;100712.78;5092470;28;20437;-69
2021/12/23 04:43:10;;;;;;;67.13;35.93;;;;;;;-2.92;79.74;100706.78;5092751;28;20502;-70
2021/12/23 04:45:37;;;;;;;66.53;35.80;;;;;;;-2.87;78.09;100707.38;5091467;28;20441;-70
2021/12/23 04:48:04;;;;;;;62.33;34.00;;;;;;;-2.84;77.14;100714.16;5091899;28;20568;-69
2021/12/23 04:50:30;;;;;;;65.53;36.47;;;;;;;-2.85;78.09;100707.28;5091808;28;20437;-69
2021/12/23 04:52:57;;;;;;;70.30;38.90;;;;;;;-2.83;78.18;100714.06;5091937;28;20499;-69
2021/12/23 04:55:25;;;;;;;75.13;37.43;;;;;;;-2.86;78.66;100709.03;5091753;28;20440;-69
2021/12/23 04:57:52;;;;;;;53.47;30.67;;;;;;;-2.87;78.57;100704.75;5091388;28;20511;-69
2021/12/23 05:00:21;;;;;;;62.90;32.13;;;;;;;-2.92;78.63;100703.34;5091624;28;21036;-69
2021/12/23 05:02:48;;;;;;;72.80;35.83;;;;;;;-3.03;78.03;100708.28;5092029;28;20495;-69
2021/12/23 05:05:16;;;;;;;52.20;29.90;;;;;;;-3.05;79.79;100704.91;5091441;28;20445;-69
2021/12/23 05:07:43;;;;;;;48.70;27.97;;;;;;;-3.02;79.45;100697.78;5091278;28;20542;-69
2021/12/23 05:10:11;;;;;;;50.60;28.90;;;;;;;-3.03;78.51;100697.88;5091743;28;20889;-69
2021/12/23 05:12:43;;;;;;;46.77;28.60;;;;;;;-3.10;79.08;100701.72;5091480;28;20445;-70
2021/12/23 05:15:11;;;;;;;51.80;31.20;;;;;;;-3.07;77.89;100697.19;5091847;28;20429;-70
2021/12/23 05:17:38;;;;;;;54.03;31.23;;;;;;;-3.17;78.92;100692.56;5091378;28;20959;-70
2021/12/23 05:20:06;;;;;;;52.73;28.10;;;;;;;-3.12;79.40;100711.34;5091695;28;20506;-69
2021/12/23 05:22:33;;;;;;;44.43;27.73;;;;;;;-3.22;79.26;100702.38;5091576;28;20503;-69
2021/12/23 05:25:00;;;;;;;37.57;24.00;;;;;;;-3.40;79.07;100687.72;5091119;28;20467;-70
2021/12/23 05:27:27;;;;;;;43.90;23.07;;;;;;;-3.41;79.80;100692.09;5091454;28;20472;-71
2021/12/23 05:29:55;;;;;;;38.07;24.73;;;;;;;-3.23;79.40;100711.09;5091459;28;20436;-70
2021/12/23 05:32:22;;;;;;;42.43;26.43;;;;;;;-3.14;79.45;100706.22;5091625;28;20493;-70
2021/12/23 05:34:48;;;;;;;52.17;29.43;;;;;;;-3.05;78.76;100715.31;5091357;28;20467;-70
2021/12/23 05:37:15;;;;;;;43.43;26.67;;;;;;;-2.98;78.97;100711.47;5094909;28;20502;-69
2021/12/23 05:39:42;;;;;;;43.03;28.20;;;;;;;-2.92;78.78;100711.13;5095387;28;20803;-68
2021/12/23 05:42:09;;;;;;;54.60;28.33;;;;;;;-2.87;78.37;100709.97;5095124;28;20429;-70
2021/12/23 05:44:35;;;;;;;47.73;26.07;;;;;;;-2.83;77.93;100721.03;5094603;28;20509;-69
2021/12/23 05:47:04;;;;;;;55.30;26.13;;;;;;;-2.81;78.18;100714.00;5094923;28;20773;-69
2021/12/23 05:49:31;;;;;;;64.33;28.83;;;;;;;-2.79;77.14;100712.16;5095356;28;20476;-69
2021/12/23 05:51:59;;;;;;;40.90;25.83;;;;;;;-2.96;78.17;100699.22;5094576;28;20441;-69
2021/12/23 05:54:26;;;;;;;48.27;26.77;;;;;;;-2.98;78.12;100707.09;5094554;28;20936;-70
2021/12/23 05:56:52;;;;;;;43.93;26.47;;;;;;;-2.86;77.23;100726.41;5094481;28;20510;-66
2021/12/23 05:59:19;;;;;;;49.97;26.10;;;;;;;-2.81;77.27;100729.59;5094639;28;20498;-68
2021/12/23 06:01:46;;;;;;;67.27;28.27;;;;;;;-2.74;76.90;100725.75;5094110;28;20449;-69
2021/12/23 06:04:14;;;;;;;53.43;31.30;;;;;;;-2.87;77.21;100717.75;5094461;28;20433;-68
2021/12/23 06:06:41;;;;;;;59.63;31.43;;;;;;;-2.82;77.39;100727.94;5094152;28;20561;-69
2021/12/23 06:09:08;;;;;;;68.83;34.30;;;;;;;-2.97;77.73;100728.72;5094549;28;20484;-68
2021/12/23 06:11:34;;;;;;;52.27;31.20;;;;;;;-2.88;78.70;100731.69;5094355;28;20465;-69
2021/12/23 06:14:01;;;;;;;60.13;37.43;;;;;;;-2.71;78.80;100730.78;5094465;28;20486;-68
2021/12/23 06:16:28;;;;;;;69.17;35.33;;;;;;;-2.63;78.47;100739.00;5093641;28;20490;-69
2021/12/23 06:18:54;;;;;;;60.10;33.17;;;;;;;-2.58;77.86;100742.22;5093339;28;20789;-70
2021/12/23 06:21:27;;;;;;;72.63;32.10;;;;;;;-2.42;79.37;100743.03;5093168;28;20437;-70
2021/12/23 06:23:53;;;;;;;60.73;34.17;;;;;;;-2.18;78.58;100744.28;5076946;28;20434;-70
2021/12/23 06:26:20;;;;;;;58.00;33.10;;;;;;;-1.96;77.44;100747.38;5073715;28;20495;-69
2021/12/23 06:28:47;;;;;;;64.33;32.50;;;;;;;-1.89;76.47;100746.06;5073614;28;20626;-69
2021/12/23 06:31:14;;;;;;;56.23;34.47;;;;;;;-1.66;76.19;100761.22;5071925;28;20495;-71
2021/12/23 06:33:41;;;;;;;62.13;35.03;;;;;;;-1.44;75.37;100754.69;5078020;28;20523;-70
2021/12/23 06:36:08;;;;;;;69.80;37.27;;;;;;;-1.12;75.97;100758.00;5087063;28;21036;-71
2021/12/23 06:38:36;;;;;;;75.53;40.23;;;;;;;-0.78;74.99;100768.03;5070128;28;20438;-69
2021/12/23 06:41:03;;;;;;;70.73;38.27;;;;;;;-0.42;75.38;100766.63;5080318;28;20445;-71
2021/12/23 06:43:30;;;;;;;75.47;39.33;;;;;;;0.22;73.59;100777.25;5091437;28;20433;-72
2021/12/23 06:45:56;;;;;;;73.40;40.10;;;;;;;0.70;70.84;100778.44;5092027;28;20503;-67
2021/12/23 06:48:23;;;;;;;76.43;39.90;;;;;;;0.97;68.58;100776.56;5094028;28;20477;-68
2021/12/23 06:50:53;;;;;;;91.77;39.97;;;;;;;1.17;67.74;100775.19;5073747;28;20957;-68
2021/12/23 06:53:20;;;;;;;81.20;40.67;;;;;;;1.35;67.44;100785.22;5073421;28;20531;-68
2021/12/23 06:55:50;;;;;;;77.30;41.47;;;;;;;1.59;65.68;100783.50;5083315;28;20867;-68
2021/12/23 06:58:17;;;;;;;62.10;35.40;;;;;;;1.77;63.34;100784.84;5092841;28;20522;-67
2021/12/23 07:00:44;;;;;;;68.90;36.80;;;;;;;2.01;62.89;100784.88;5093284;28;20904;-68
2021/12/23 07:03:10;;;;;;;71.43;37.50;;;;;;;2.11;62.71;100781.47;5092640;28;20952;-68
2021/12/23 07:05:37;;;;;;;65.50;35.00;;;;;;;2.25;61.99;100783.91;5092898;28;20490;-67
2021/12/23 07:08:09;;;;;;;73.97;28.67;;;;;;;2.31;59.71;100783.47;5092525;28;20530;-67
2021/12/23 07:10:36;;;;;;;50.57;27.70;;;;;;;2.49;58.20;100792.59;5094253;28;20433;-69
2021/12/23 07:13:05;;;;;;;52.43;29.77;;;;;;;2.67;59.24;100785.16;5092818;28;20490;-69
2021/12/23 07:15:32;;;;;;;57.33;28.63;;;;;;;2.89;57.40;100795.72;5093243;28;20792;-68
2021/12/23 07:18:01;;;;;;;43.27;26.97;;;;;;;3.04;55.61;100798.03;5093090;28;20484;-67
2021/12/23 07:20:29;;;;;;;30.63;21.37;;;;;;;3.18;53.82;100800.41;5092730;28;20437;-68
2021/12/23 07:22:56;;;;;;;60.07;26.37;;;;;;;3.37;54.80;100805.94;5092203;28;20467;-69
2021/12/23 07:25:23;;;;;;;65.20;35.73;;;;;;;3.59;53.65;100802.50;5092476;28;20561;-69
2021/12/23 07:27:50;;;;;;;68.70;37.70;;;;;;;3.66;51.05;100803.66;5092345;28;20468;-70
2021/12/23 07:30:20;;;;;;;64.93;33.97;;;;;;;3.79;50.43;100810.47;5092136;28;21008;-69
2021/12/23 07:32:47;;;;;;;59.90;32.10;;;;;;;3.91;49.92;100809.50;5092239;28;20315;-69
2021/12/23 07:35:14;;;;;;;69.07;32.10;;;;;;;3.92;50.54;100805.91;5092405;28;20433;-69
2021/12/23 07:37:41;;;;;;;61.13;31.93;;;;;;;4.18;50.04;100809.94;5092754;28;20195;-69
2021/12/23 07:40:13;;;;;;;60.03;36.23;;;;;;;4.42;50.18;100805.28;5091062;28;20205;-70
2021/12/23 07:42:42;;;;;;;68.20;37.70;;;;;;;4.44;50.25;100807.81;5091936;28;20236;-72
2021/12/23 07:45:09;;;;;;;70.00;38.57;;;;;;;4.63;49.49;100816.72;5091438;28;20850;-71
2021/12/23 07:47:37;;;;;;;63.23;38.10;;;;;;;4.82;48.58;100810.78;5092318;28;20191;-70
2021/12/23 07:50:05;;;;;;;70.83;37.47;;;;;;;4.89;47.79;100810.13;5092117;28;20227;-71
2021/12/23 07:52:33;;;;;;;55.07;34.00;;;;;;;5.05;46.19;100805.25;5092273;28;20191;-71
2021/12/23 07:55:00;;;;;;;58.57;34.20;;;;;;;5.25;46.73;100803.56;5090102;28;20654;-74
2021/12/23 07:57:26;;;;;;;47.60;30.97;;;;;;;5.31;45.30;100790.69;5090316;28;20753;-72
2021/12/23 07:59:53;;;;;;;48.00;29.03;;;;;;;5.55;44.64;100799.13;5090718;28;20287;-71
2021/12/23 08:02:20;;;;;;;51.37;30.80;;;;;;;5.42;44.89;100795.88;5091462;28;20187;-71
2021/12/23 08:04:48;;;;;;;44.60;26.87;;;;;;;5.52;44.88;100793.31;5091739;28;20199;-72
2021/12/23 08:07:14;;;;;;;57.57;29.17;;;;;;;5.12;44.58;100784.50;5091562;28;20195;-71
2021/12/23 08:09:41;;;;;;;38.40;25.30;;;;;;;4.48;45.55;100788.19;5091993;28;20315;-70
2021/12/23 08:12:09;;;;;;;44.83;25.57;;;;;;;4.57;45.82;100783.00;5092076;28;20260;-69
2021/12/23 08:14:36;;;;;;;41.70;24.77;;;;;;;4.66;44.80;100779.59;5086143;28;20199;-70
2021/12/23 08:17:03;;;;;;;43.30;24.40;;;;;;;4.95;44.48;100774.56;5085459;28;20200;-69
2021/12/23 08:19:29;;;;;;;38.20;24.03;;;;;;;5.32;43.71;100776.56;5088277;28;20963;-73
2021/12/23 08:21:57;;;;;;;35.53;23.67;;;;;;;5.62;43.01;100770.44;5065868;28;20504;-70
2021/12/23 08:24:24;;;;;;;50.13;23.07;;;;;;;5.75;42.25;100774.50;5080108;28;20195;-70
2021/12/23 08:26:53;;;;;;;34.63;23.70;;;;;;;5.97;42.23;100772.66;5074909;28;20735;-71
2021/12/23 08:29:20;;;;;;;42.47;25.63;;;;;;;5.80;42.62;100758.28;5091316;28;20678;-72
2021/12/23 08:31:52;;;;;;;40.60;22.63;;;;;;;6.00;54.22;100761.84;5088600;28;20203;-70
2021/12/23 08:34:19;;;;;;;50.40;26.93;;;;;;;6.01;42.38;100772.25;5078343;28;20576;-70
2021/12/23 08:36:46;;;;;;;44.57;25.23;;;;;;;5.76;42.89;100757.72;5074384;28;20204;-72
2021/12/23 08:39:14;;;;;;;41.83;24.33;;;;;;;5.95;42.22;100769.34;5070044;28;20197;-71
2021/12/23 08:41:40;;;;;;;35.37;23.30;;;;;;;6.12;41.25;100771.31;5072718;28;20196;-73
2021/12/23 08:44:07;;;;;;;44.00;24.90;;;;;;;6.39;40.96;100763.53;5078154;28;20671;-71
2021/12/23 08:46:34;;;;;;;53.43;29.03;;;;;;;6.15;41.72;100765.75;5081030;28;20199;-72
2021/12/23 08:49:00;;;;;;;32.43;23.97;;;;;;;5.81;42.00;100760.00;5074056;28;20779;-71
2021/12/23 08:51:27;;;;;;;36.13;24.80;;;;;;;5.62;42.29;100758.09;5080246;28;20745;-71
2021/12/23 08:53:54;;;;;;;31.43;22.53;;;;;;;5.56;42.51;100753.34;5081530;28;20202;-73
2021/12/23 08:56:22;;;;;;;28.97;20.60;;;;;;;5.84;42.25;100758.91;5082721;28;20199;-71
2021/12/23 08:58:49;;;;;;;19.60;15.07;;;;;;;5.90;41.69;100761.81;5090233;28;20296;-72
2021/12/23 09:01:15;;;;;;;24.87;14.80;;;;;;;5.71;41.93;100757.31;5089042;28;20200;-71
2021/12/23 09:03:42;;;;;;;16.20;12.60;;;;;;;5.75;42.02;100749.94;5087438;28;20210;-70
2021/12/23 09:06:09;;;;;;;17.13;13.60;;;;;;;5.51;43.21;100737.13;5090131;28;20203;-70
2021/12/23 09:08:36;;;;;;;13.23;10.00;;;;;;;5.58;41.80;100746.16;5086275;28;20227;-71
2021/12/23 09:11:04;;;;;;;12.33;11.07;;;;;;;5.82;42.38;100734.44;5094376;28;20191;-72
2021/12/23 09:13:32;;;;;;;19.57;13.00;;;;;;;6.03;42.19;100729.91;5083061;28;20199;-70
2021/12/23 09:15:59;;;;;;;23.00;13.80;;;;;;;6.35;41.52;100733.97;5084514;28;20199;-70
2021/12/23 09:18:27;;;;;;;25.90;17.50;;;;;;;6.63;40.79;100730.50;5095176;28;20199;-70
2021/12/23 09:20:55;;;;;;;24.37;14.10;;;;;;;6.71;39.77;100727.13;5094704;28;20191;-72
2021/12/23 09:23:22;;;;;;;32.63;13.73;;;;;;;6.57;40.56;100714.38;5092929;28;20629;-72
2021/12/23 09:25:49;;;;;;;13.17;11.03;;;;;;;6.36;40.57;100705.78;5087734;28;20199;-72
2021/12/23 09:28:27;;;;;;;17.37;13.50;;;;;;;6.25;41.57;100698.00;5090778;28;20214;-72
2021/12/23 09:33:52;;;;;;;33.10;15.23;;;;;;;5.96;42.56;100686.63;5012726;28;20840;-70
2021/12/23 09:36:19;;;;;;;21.30;14.37;;;;;;;6.19;42.13;100686.19;5060336;28;20196;-71
2021/12/23 09:38:46;;;;;;;14.73;11.30;;;;;;;6.34;41.25;100676.06;5080371;28;20207;-72
2021/12/23 09:41:15;;;;;;;16.77;10.37;;;;;;;6.09;41.65;100673.97;5086409;28;20196;-72
2021/12/23 09:43:43;;;;;;;16.53;11.67;;;;;;;6.16;41.20;100675.91;5094461;28;20199;-72
2021/12/23 09:46:15;;;;;;;10.97;9.77;;;;;;;6.48;47.75;100668.53;5093695;28;20663;-71
2021/12/23 09:48:44;;;;;;;25.30;12.20;;;;;;;6.51;41.97;100677.97;5094524;28;20199;-72
2021/12/23 09:51:14;;;;;;;19.67;11.43;;;;;;;6.56;40.46;100660.75;5092111;28;20201;-71
2021/12/23 09:53:42;;;;;;;15.57;11.07;;;;;;;6.80;41.57;100668.19;5078473;28;20253;-73
2021/12/23 09:56:10;;;;;;;49.83;13.80;;;;;;;6.93;40.35;100664.25;5080440;28;20191;-72
2021/12/23 09:58:37;;;;;;;21.97;12.20;;;;;;;6.79;41.15;100666.53;5090106;28;20228;-73
2021/12/23 10:01:05;;;;;;;13.07;10.83;;;;;;;6.64;59.83;100636.25;5093133;28;20193;-72
2021/12/23 10:03:37;;;;;;;16.40;12.43;;;;;;;6.65;42.08;100653.78;5085652;28;20196;-73
2021/12/23 10:06:03;;;;;;;18.53;9.20;;;;;;;6.63;47.54;100639.88;5073972;28;20190;-72
2021/12/23 10:08:30;;;;;;;25.87;17.37;;;;;;;6.97;42.20;100646.28;5073871;28;20253;-73
2021/12/23 10:11:03;;;;;;;20.33;9.93;;;;;;;7.16;39.80;100639.16;5082460;28;20319;-73
2021/12/23 10:30:28;;;;;;;29.17;11.17;;;;;;;6.46;42.25;100598.41;5072472;28;20556;-74
2021/12/23 10:38:29;;;;;;;12.50;10.20;;;;;;;5.99;42.96;100592.22;5093175;28;20245;-73
2021/12/23 10:40:59;;;;;;;15.17;11.23;;;;;;;5.98;41.80;100587.09;5088410;28;20202;-72
2021/12/23 10:43:31;;;;;;;14.00;11.90;;;;;;;6.01;42.06;100589.44;5091027;28;20260;-73
2021/12/23 10:46:01;;;;;;;14.53;11.83;;;;;;;5.95;41.75;100584.75;5085300;28;20252;-71
2021/12/23 10:48:31;;;;;;;13.63;10.20;;;;;;;6.06;41.56;100574.03;5073479;28;20274;-72
2021/12/23 10:51:05;;;;;;;18.90;10.53;;;;;;;6.31;40.85;100576.06;5072908;28;20222;-70
2021/12/23 10:53:51;;;;;;;13.00;11.17;;;;;;;6.36;40.88;100577.31;5072097;28;20185;-72
2021/12/23 10:59:15;;;;;;;18.63;11.07;;;;;;;6.64;40.04;100567.63;5092205;28;20305;-73
2021/12/23 11:02:04;;;;;;;22.93;11.87;;;;;;;6.80;39.68;100573.97;5092804;28;20654;-71
2021/12/23 11:04:36;;;;;;;36.53;20.40;;;;;;;6.80;39.57;100568.69;5091576;28;20671;-73
2021/12/23 11:07:18;;;;;;;36.07;12.40;;;;;;;6.86;39.50;100567.28;5093179;28;20191;-72
2021/12/23 11:10:12;;;;;;;18.97;10.73;;;;;;;6.75;39.57;100559.53;5092351;28;20299;-75
2021/12/23 11:38:21;;;;;;;20.00;12.93;;;;;;;5.97;39.72;100514.22;5044186;28;20227;-73
2021/12/23 11:40:54;;;;;;;18.77;15.30;;;;;;;5.74;40.85;100503.13;5079802;28;20197;-74
2021/12/23 11:43:31;;;;;;;22.70;13.60;;;;;;;5.98;40.51;100511.47;5090649;28;20647;-70
2021/12/23 11:46:00;;;;;;;18.07;13.10;;;;;;;5.99;40.19;100512.28;5090531;28;20241;-72
2021/12/23 11:48:27;;;;;;;17.77;13.00;;;;;;;5.97;40.57;100501.88;5090636;28;20190;-73
2021/12/23 11:50:56;;;;;;;20.07;12.20;;;;;;;5.74;40.71;100503.97;5090494;28;20759;-71
2021/12/23 11:53:24;;;;;;;17.87;12.33;;;;;;;5.75;40.49;100504.78;5090667;28;20223;-71
2021/12/23 11:55:54;;;;;;;16.33;10.73;;;;;;;5.68;40.17;100498.44;5090546;28;20750;-72
2021/12/23 11:58:23;;;;;;;21.00;15.47;;;;;;;5.42;40.71;100503.44;5090563;28;20289;-71
2021/12/23 12:01:05;;;;;;;31.37;13.33;;;;;;;5.57;40.57;100502.03;5090926;28;20191;-70
2021/12/23 12:03:39;;;;;;;20.03;12.83;;;;;;;5.54;40.47;100497.06;5090559;28;20180;-70
2021/12/23 12:06:17;;;;;;;24.03;11.90;;;;;;;5.61;40.30;100500.78;5090734;28;20260;-71
2021/12/23 12:08:44;;;;;;;18.80;14.33;;;;;;;5.79;40.34;100500.91;5090622;28;20664;-72
2021/12/23 12:11:17;;;;;;;28.77;15.17;;;;;;;5.99;40.06;100493.81;5090362;28;20219;-69
2021/12/23 12:13:44;;;;;;;34.70;17.67;;;;;;;6.11;39.76;100503.22;5089602;28;20672;-72